Sacramento Mather Airport
KMHR : now visible

Airfield :











YOU CAN JOIN US ON...

 
LOGIN :

Register | Disclaimer

   EN    FR    IT 

 









Legend :    VFR   Marginal VFR   IFR   Intensive IFR   Very Intensive IFR
Visi :
Ceiling :
>= 8 km
>= 3000ft
5 to 8 km
1000 to 3000 ft
1500m to 5 km
500 to 1000 ft
800 to 1500m
200 to 500 ft
< 800m
< 200 ft
Symbols :   Thunderstorms  Fog  Heavy snow  Heavy precipitations  Wind > 20 kt






- Airport Elevation : 99 ft


KMHR - Sacramento Mather

CURRENT METAR :
  • 281155Z AUTO 05004KT 10SM CLR 04/02 A2995 RMK A01

EXPIRED METARs :
  • 281135Z AUTO 00000KT 10SM CLR 03/01 A2995 RMK A01
  • 281115Z AUTO 00000KT 10SM FEW090 04/02 A2994 RMK A01
  • 281050Z AUTO 00000KT 10SM FEW100 04/02 A2995 RMK A01
  • 281035Z AUTO 14007KT 10SM BKN100 05/02 A2995 RMK A01
  • 281015Z AUTO 18004KT 10SM OVC100 05/02 A2995 RMK A01
  • 280955Z AUTO 00000KT 10SM SCT100 04/01 A2995 RMK A01
  • 280935Z AUTO 00000KT 10SM CLR 03/01 A2995 RMK A01
  • 280915Z AUTO 00000KT 10SM CLR 04/02 A2995 RMK A01

TAF KMHR
Valid from the 28 at 12:00 until the 29 at 12:00 UTC


281132Z 2812/2912 VRB03KT 6SM BR SCT150
FM281800 VRB06KT P6SM SCT120
FM282300 28006KT P6SM BKN100
FM290500 34006KT P6SM SKC
KZOA FIR / North America



MET'MAP, your aeronautical weather chart ! - Copyright ORBIFLY December 2007 - Disclaimer

ORBIFLY MET'MAP TEAM :

Programming & Development : Alexandra Zaïnal
Original concept : Baudouin d'Aumeries
Technical & hardware support : Manuel Goepfert
Assistance : Marc-Olivier Méhu




SOURCES & CREDITS :

   NOAA       Earth
Advisory